Huvudsida
METAR-TAF:

METAR-TAF

Flygplatser :

Namsos flygplats. Høknesøra

Namsos, Norge

latitud: 64-28N, longitud: 011-35E, höjd: 0 m

Aktuellt väderrapport

Denna rapport gjordes för 7 timmar och 8 minuter sedan, klockan 20:50 UTC
Stilla vind
Temperatur 0°C
Fuktighet 100%
Tryck 987 hPa
Sikt: 2500 m
snöbyar

METAR: ENNM 182050Z 00000KT 2500 SHSN VV008 00/M00 Q0987

Tid: 04:58 (03:58 UTC)


TAF: saknas

Aktuella väderrapporter och prognoser från 4000 flygplatser (METAR- och TAF-rapporter).

De tillgängliga stationerna syns som gula och röda prickar på kartan.

För musen över prickarna för att se namnen på stationerna.

Klicka sedan för att få väderrapporter och prognoser.

För att ändra kartan: Klicka på de gröna knapparna med ett svart kors på för att zooma in; den gröna knappen med ett streck på för att zooma ut; eller på de gröna pilarna för angränsande kartor.


METAR-TAF: